createdAt,value
2018-08-28T00:00:49.373Z,6.03
2018-08-28T00:03:17.918Z,5.53
2018-08-28T00:05:46.428Z,4.97
2018-08-28T00:08:14.936Z,5.23
2018-08-28T00:10:43.400Z,6.00
2018-08-28T00:13:12.089Z,5.80
2018-08-28T00:15:40.681Z,6.00
2018-08-28T00:18:09.225Z,5.93
2018-08-28T00:20:37.796Z,5.97
2018-08-28T00:23:06.458Z,5.77
2018-08-28T00:25:35.066Z,5.57
2018-08-28T00:28:03.648Z,5.87
2018-08-28T00:30:32.111Z,6.40
2018-08-28T00:33:00.681Z,6.80
2018-08-28T00:35:29.142Z,5.73
2018-08-28T00:37:57.655Z,5.60
2018-08-28T00:40:26.120Z,5.43
2018-08-28T00:42:54.833Z,5.57
2018-08-28T00:45:23.602Z,6.67
2018-08-28T00:47:52.134Z,5.83
2018-08-28T00:50:20.784Z,6.47
2018-08-28T00:52:49.327Z,6.53
2018-08-28T00:55:17.832Z,6.37
2018-08-28T00:57:46.369Z,5.70
2018-08-28T01:00:14.891Z,5.77
2018-08-28T01:02:43.348Z,5.73
2018-08-28T01:05:11.872Z,5.77
2018-08-28T01:07:40.969Z,5.77
2018-08-28T01:10:09.807Z,5.97
2018-08-28T01:12:38.320Z,6.53
2018-08-28T01:15:07.429Z,6.30
2018-08-28T01:17:35.885Z,5.90
2018-08-28T01:20:05.047Z,5.90
2018-08-28T01:22:33.568Z,6.20
2018-08-28T01:25:02.011Z,5.90
2018-08-28T01:27:30.496Z,6.60
2018-08-28T01:29:58.929Z,6.43
2018-08-28T01:32:27.394Z,5.80
2018-08-28T01:34:55.847Z,6.97
2018-08-28T01:37:24.413Z,6.80
2018-08-28T01:39:53.083Z,6.00
2018-08-28T01:42:23.883Z,6.60
2018-08-28T01:44:52.499Z,7.43
2018-08-28T01:47:21.498Z,6.90
2018-08-28T01:49:50.523Z,7.10
2018-08-28T01:52:19.858Z,6.90
2018-08-28T01:54:48.367Z,6.70
2018-08-28T01:57:16.854Z,7.70
2018-08-28T01:59:45.664Z,7.00
2018-08-28T02:02:14.146Z,8.60
2018-08-28T02:04:42.749Z,8.37
2018-08-28T02:07:11.197Z,8.00
2018-08-28T02:09:39.737Z,8.43
2018-08-28T02:12:08.419Z,8.50
2018-08-28T02:14:37.044Z,7.33
2018-08-28T02:17:05.539Z,7.40
2018-08-28T02:19:33.996Z,7.60
2018-08-28T02:22:02.489Z,7.20
2018-08-28T02:24:30.996Z,7.17
2018-08-28T02:26:59.481Z,9.10
2018-08-28T02:29:28.001Z,8.63
2018-08-28T02:31:56.463Z,7.80
2018-08-28T02:34:25.133Z,7.23
2018-08-28T02:36:53.604Z,7.53
2018-08-28T02:39:22.069Z,8.37
2018-08-28T02:41:50.505Z,7.80
2018-08-28T02:44:19.019Z,9.23
2018-08-28T02:46:47.758Z,7.43
2018-08-28T02:49:17.035Z,8.27
2018-08-28T02:51:45.988Z,7.87
2018-08-28T02:54:14.572Z,8.33
2018-08-28T02:56:43.173Z,8.13
2018-08-28T02:59:12.257Z,8.37
2018-08-28T03:01:40.981Z,8.20
2018-08-28T03:04:09.957Z,8.10
2018-08-28T03:06:39.206Z,7.73
2018-08-28T03:09:08.051Z,9.03
2018-08-28T03:11:36.951Z,8.07
2018-08-28T03:14:05.583Z,9.00
2018-08-28T03:16:34.324Z,8.50
2018-08-28T03:19:03.479Z,9.63
2018-08-28T03:21:32.367Z,8.70
2018-08-28T03:24:01.244Z,8.60
2018-08-28T03:26:30.081Z,9.40
2018-08-28T03:28:58.788Z,8.80
2018-08-28T03:31:27.751Z,8.93
2018-08-28T03:33:56.748Z,9.00
2018-08-28T03:36:25.753Z,8.93
2018-08-28T03:38:54.499Z,9.57
2018-08-28T03:41:23.256Z,9.30
2018-08-28T03:43:52.112Z,9.83
2018-08-28T03:46:20.905Z,9.73
2018-08-28T03:48:49.479Z,10.67
2018-08-28T03:51:18.276Z,9.50
2018-08-28T03:53:46.805Z,9.90
2018-08-28T03:56:15.396Z,8.87
2018-08-28T03:58:44.317Z,9.23
2018-08-28T04:01:12.821Z,9.90
2018-08-28T04:03:41.616Z,9.33
2018-08-28T04:06:10.232Z,9.33
2018-08-28T04:08:38.915Z,9.20
2018-08-28T04:11:07.555Z,10.20
2018-08-28T04:13:35.982Z,10.13
2018-08-28T04:16:04.528Z,10.03
2018-08-28T04:18:33.430Z,9.50
2018-08-28T04:21:02.546Z,10.20
2018-08-28T04:23:31.265Z,11.07
2018-08-28T04:25:59.741Z,9.87
2018-08-28T04:28:28.410Z,10.67
2018-08-28T04:30:57.285Z,10.90
2018-08-28T04:33:25.604Z,9.77
2018-08-28T04:35:54.073Z,11.10
2018-08-28T04:38:22.840Z,10.17
2018-08-28T04:40:51.309Z,9.73
2018-08-28T04:43:19.795Z,12.27
2018-08-28T04:45:48.321Z,11.13
2018-08-28T04:48:17.036Z,11.70
2018-08-28T04:50:45.812Z,11.03
2018-08-28T04:53:14.627Z,10.77
2018-08-28T04:55:43.340Z,10.17
2018-08-28T04:58:11.763Z,10.57
2018-08-28T05:00:40.797Z,11.50
2018-08-28T05:03:09.188Z,10.93
2018-08-28T05:05:38.024Z,10.53
2018-08-28T05:08:06.684Z,12.00
2018-08-28T05:10:35.184Z,10.17
2018-08-28T05:13:03.669Z,10.60
2018-08-28T05:15:32.335Z,11.83
2018-08-28T05:18:01.309Z,10.73
2018-08-28T05:20:29.999Z,11.20
2018-08-28T05:22:58.632Z,9.70
2018-08-28T05:25:27.493Z,11.10
2018-08-28T05:27:56.267Z,9.33
2018-08-28T05:30:25.261Z,9.10
2018-08-28T05:32:53.921Z,9.60
2018-08-28T05:35:22.599Z,9.73
2018-08-28T05:37:51.484Z,10.07
2018-08-28T05:40:20.238Z,9.47
2018-08-28T05:42:49.076Z,9.07
2018-08-28T05:45:18.285Z,8.13
2018-08-28T05:47:47.037Z,8.13
2018-08-28T05:50:15.936Z,8.17
2018-08-28T05:52:45.173Z,9.03
2018-08-28T05:55:16.803Z,8.93
2018-08-28T05:57:45.843Z,8.50
2018-08-28T06:00:14.754Z,7.87
2018-08-28T06:02:43.384Z,7.57
2018-08-28T06:05:12.283Z,7.63
2018-08-28T06:07:40.818Z,7.17
2018-08-28T06:10:09.673Z,7.37
2018-08-28T06:12:38.266Z,6.70
2018-08-28T06:15:07.451Z,7.50
2018-08-28T06:17:36.063Z,6.80
2018-08-28T06:20:05.100Z,6.70
2018-08-28T06:22:33.933Z,6.60
2018-08-28T06:25:02.709Z,6.83
2018-08-28T06:27:31.304Z,6.97
2018-08-28T06:29:59.973Z,7.23
2018-08-28T06:32:28.599Z,6.90
2018-08-28T06:34:57.254Z,7.67
2018-08-28T06:37:25.885Z,7.37
2018-08-28T06:39:54.328Z,6.90
2018-08-28T06:42:22.925Z,7.30
2018-08-28T06:44:51.685Z,7.27
2018-08-28T06:47:20.860Z,6.80
2018-08-28T06:49:49.509Z,7.57
2018-08-28T06:52:18.421Z,7.97
2018-08-28T06:54:47.185Z,7.80
2018-08-28T06:57:15.920Z,8.20
2018-08-28T06:59:45.283Z,8.17
2018-08-28T07:02:14.751Z,6.90
2018-08-28T07:04:43.851Z,7.70
2018-08-28T07:07:12.844Z,7.37
2018-08-28T07:09:42.070Z,6.40
2018-08-28T07:12:11.233Z,7.60
2018-08-28T07:14:40.105Z,6.57
2018-08-28T07:17:08.962Z,6.67
2018-08-28T07:19:37.965Z,7.67
2018-08-28T07:22:07.309Z,6.50
2018-08-28T07:24:36.419Z,6.83
2018-08-28T07:27:07.217Z,6.30
2018-08-28T07:29:37.153Z,6.43
2018-08-28T07:32:06.338Z,6.75
2018-08-28T07:34:34.975Z,5.80
2018-08-28T07:37:03.493Z,5.92
2018-08-28T07:39:32.158Z,5.40
2018-08-28T07:42:00.636Z,4.70
2018-08-28T07:44:29.936Z,4.92
2018-08-28T07:46:58.861Z,4.53
2018-08-28T07:49:27.296Z,5.42
2018-08-28T07:51:55.829Z,5.90
2018-08-28T07:54:24.498Z,5.78
2018-08-28T07:56:53.088Z,6.40
2018-08-28T07:59:21.539Z,6.05
2018-08-28T08:01:50.033Z,5.70
2018-08-28T08:04:18.610Z,5.80
2018-08-28T08:06:47.057Z,6.35
2018-08-28T08:09:15.565Z,6.83
2018-08-28T08:11:44.017Z,5.92
2018-08-28T08:14:12.538Z,6.28
2018-08-28T08:16:41.207Z,6.25
2018-08-28T08:19:09.696Z,5.80
2018-08-28T08:21:38.174Z,6.90
2018-08-28T08:24:06.892Z,6.65
2018-08-28T08:26:35.410Z,5.40
2018-08-28T08:29:03.865Z,6.50
2018-08-28T08:31:32.295Z,5.83
2018-08-28T08:34:00.745Z,6.33
2018-08-28T08:36:29.178Z,6.30
2018-08-28T08:38:57.647Z,5.80
2018-08-28T08:41:26.111Z,5.78
2018-08-28T08:43:54.565Z,5.65
2018-08-28T08:46:23.077Z,6.65
2018-08-28T08:48:51.537Z,6.95
2018-08-28T08:51:20.067Z,6.80
2018-08-28T08:53:48.837Z,6.87
2018-08-28T08:56:17.325Z,7.15
2018-08-28T08:58:45.937Z,7.08
2018-08-28T09:01:14.422Z,7.53
2018-08-28T09:03:42.943Z,7.62
2018-08-28T09:06:11.548Z,7.60
2018-08-28T09:08:40.295Z,7.60
2018-08-28T09:11:09.402Z,7.45
2018-08-28T09:13:37.836Z,6.75
2018-08-28T09:16:06.334Z,7.33
2018-08-28T09:18:34.830Z,7.35
2018-08-28T09:21:03.273Z,7.22
2018-08-28T09:23:31.786Z,6.92
2018-08-28T09:26:00.297Z,7.97
2018-08-28T09:28:28.788Z,7.17
2018-08-28T09:30:57.310Z,6.85
2018-08-28T09:33:25.873Z,7.72
2018-08-28T09:35:54.316Z,7.28
2018-08-28T09:38:22.861Z,7.70
2018-08-28T09:40:51.312Z,7.62
2018-08-28T09:43:19.966Z,7.90
2018-08-28T09:45:48.674Z,7.33
2018-08-28T09:48:19.037Z,7.42
2018-08-28T09:50:47.607Z,8.48
2018-08-28T09:53:16.004Z,8.00
2018-08-28T09:55:44.483Z,8.05
2018-08-28T09:58:12.944Z,7.50
2018-08-28T10:00:46.900Z,7.33
2018-08-28T10:03:15.473Z,7.72
2018-08-28T10:05:43.930Z,7.58
2018-08-28T10:08:12.392Z,8.00
2018-08-28T10:10:40.970Z,7.35
2018-08-28T10:13:09.447Z,7.15
2018-08-28T10:15:37.930Z,7.72
2018-08-28T10:18:06.818Z,7.65
2018-08-28T10:20:35.841Z,8.38
2018-08-28T10:23:04.593Z,7.22
2018-08-28T10:25:33.291Z,7.90
2018-08-28T10:28:02.514Z,7.30
2018-08-28T10:30:37.815Z,7.37
2018-08-28T10:33:06.849Z,7.27
2018-08-28T10:35:35.597Z,7.90
2018-08-28T10:38:04.440Z,7.00
2018-08-28T10:40:33.389Z,7.03
2018-08-28T10:43:02.476Z,7.30
2018-08-28T10:45:31.002Z,6.78
2018-08-28T10:47:59.505Z,8.48
2018-08-28T10:50:27.973Z,7.73
2018-08-28T10:52:56.538Z,7.97
2018-08-28T10:55:24.930Z,6.50
2018-08-28T10:57:53.432Z,7.80
2018-08-28T11:00:22.074Z,7.13
2018-08-28T11:02:50.537Z,7.10
2018-08-28T11:05:19.000Z,8.00
2018-08-28T11:07:47.597Z,7.73
2018-08-28T11:10:16.368Z,8.40
2018-08-28T11:12:44.909Z,8.50
2018-08-28T11:15:13.421Z,7.33
2018-08-28T11:17:42.017Z,7.97
2018-08-28T11:20:10.923Z,7.17
2018-08-28T11:22:39.664Z,7.57
2018-08-28T11:25:08.586Z,6.93
2018-08-28T11:27:37.159Z,7.43
2018-08-28T11:30:05.725Z,8.50
2018-08-28T11:32:34.241Z,8.10
2018-08-28T11:35:02.881Z,7.83
2018-08-28T11:37:31.571Z,7.67
2018-08-28T11:40:00.076Z,8.37
2018-08-28T11:42:28.671Z,7.37
2018-08-28T11:44:57.194Z,7.03
2018-08-28T11:47:25.986Z,7.50
2018-08-28T11:49:55.009Z,8.07
2018-08-28T11:52:23.498Z,8.20
2018-08-28T11:54:51.954Z,8.37
2018-08-28T11:57:20.446Z,7.50
2018-08-28T11:59:49.097Z,7.93
2018-08-28T12:02:17.631Z,8.23
2018-08-28T12:04:46.291Z,8.77
2018-08-28T12:07:14.908Z,8.00
2018-08-28T12:09:43.621Z,7.87
2018-08-28T12:12:12.190Z,7.60
2018-08-28T12:14:40.916Z,8.60
2018-08-28T12:17:09.656Z,8.17
2018-08-28T12:19:38.346Z,8.17
2018-08-28T12:22:06.852Z,8.47
2018-08-28T12:24:35.340Z,8.73
2018-08-28T12:27:03.824Z,8.57
2018-08-28T12:29:32.589Z,8.30
2018-08-28T12:32:01.065Z,9.03
2018-08-28T12:34:29.691Z,8.40
2018-08-28T12:36:58.300Z,8.30
2018-08-28T12:39:26.998Z,9.10
2018-08-28T12:41:55.649Z,8.57
2018-08-28T12:44:24.207Z,8.97
2018-08-28T12:46:52.752Z,8.90
2018-08-28T12:49:21.188Z,9.17
2018-08-28T12:51:49.618Z,7.60
2018-08-28T12:54:18.158Z,8.17
2018-08-28T12:56:46.657Z,8.20
2018-08-28T12:59:15.261Z,7.97
2018-08-28T13:01:43.787Z,7.93
2018-08-28T13:04:12.277Z,8.53
2018-08-28T13:06:40.734Z,8.07
2018-08-28T13:09:09.224Z,8.80
2018-08-28T13:11:37.657Z,8.10
2018-08-28T13:14:06.549Z,8.67
2018-08-28T13:16:35.356Z,7.97
2018-08-28T13:19:04.136Z,7.77
2018-08-28T13:21:32.815Z,8.27
2018-08-28T13:24:01.317Z,8.43
2018-08-28T13:26:30.365Z,8.83
2018-08-28T13:28:58.836Z,8.77
2018-08-28T13:31:27.310Z,8.33
2018-08-28T13:33:55.876Z,7.83
2018-08-28T13:36:24.380Z,8.80
2018-08-28T13:38:52.927Z,8.00
2018-08-28T13:41:21.412Z,8.60
2018-08-28T13:43:49.852Z,9.27
2018-08-28T13:46:18.405Z,8.27
2018-08-28T13:48:47.014Z,8.73
2018-08-28T13:51:16.208Z,8.37
2018-08-28T13:53:45.420Z,8.27
2018-08-28T13:56:13.715Z,7.97
2018-08-28T13:58:42.241Z,8.23
2018-08-28T14:01:10.715Z,8.30
2018-08-28T14:03:39.218Z,7.67
2018-08-28T14:06:07.723Z,8.20
2018-08-28T14:08:36.198Z,7.90
2018-08-28T14:11:07.601Z,7.53
2018-08-28T14:13:36.082Z,7.97
2018-08-28T14:16:04.838Z,7.87
2018-08-28T14:18:33.358Z,8.30
2018-08-28T14:21:01.849Z,7.00
2018-08-28T14:23:30.519Z,7.63
2018-08-28T14:25:59.025Z,7.50
2018-08-28T14:28:28.168Z,8.03
2018-08-28T14:30:56.925Z,7.30
2018-08-28T14:33:25.540Z,7.20
2018-08-28T14:35:54.071Z,6.10
2018-08-28T14:38:22.620Z,6.10
2018-08-28T14:40:51.139Z,7.03
2018-08-28T14:43:19.626Z,6.13
2018-08-28T14:45:48.058Z,5.80
2018-08-28T14:48:16.553Z,6.93
2018-08-28T14:50:45.032Z,6.83
2018-08-28T14:53:13.787Z,6.60
2018-08-28T14:55:42.273Z,7.37
2018-08-28T14:58:10.935Z,7.67
2018-08-28T15:00:40.246Z,6.60
2018-08-28T15:03:08.760Z,6.80
2018-08-28T15:05:37.269Z,6.03
2018-08-28T15:08:05.854Z,6.07
2018-08-28T15:10:34.385Z,6.10
2018-08-28T15:13:02.817Z,7.07
2018-08-28T15:15:31.316Z,7.03
2018-08-28T15:17:59.807Z,6.17
2018-08-28T15:20:28.438Z,6.67
2018-08-28T15:22:56.903Z,7.53
2018-08-28T15:25:25.710Z,6.87
2018-08-28T15:27:54.162Z,6.20
2018-08-28T15:30:22.647Z,6.53
2018-08-28T15:32:51.152Z,5.73
2018-08-28T15:35:19.662Z,5.97
2018-08-28T15:37:48.101Z,5.60
2018-08-28T15:40:16.627Z,5.83
2018-08-28T15:42:45.104Z,6.27
2018-08-28T15:45:13.592Z,6.57
2018-08-28T15:47:42.072Z,5.87
2018-08-28T15:50:11.345Z,6.40
2018-08-28T15:52:39.823Z,6.83
2018-08-28T15:55:08.498Z,6.37
2018-08-28T15:57:37.330Z,6.20
2018-08-28T16:00:07.140Z,5.90
2018-08-28T16:02:35.855Z,6.17
2018-08-28T16:05:04.337Z,6.30
2018-08-28T16:07:32.874Z,6.13
2018-08-28T16:10:01.637Z,6.27
2018-08-28T16:12:30.188Z,5.40
2018-08-28T16:14:58.745Z,5.93
2018-08-28T16:17:27.232Z,5.80
2018-08-28T16:19:55.753Z,5.90
2018-08-28T16:22:31.740Z,5.53
2018-08-28T16:25:00.184Z,5.40
2018-08-28T16:27:28.638Z,5.80
2018-08-28T16:29:57.130Z,6.30
2018-08-28T16:32:25.681Z,5.47
2018-08-28T16:34:54.219Z,5.63
2018-08-28T16:37:22.717Z,5.90
2018-08-28T16:39:51.299Z,6.33
2018-08-28T16:42:19.798Z,6.20
2018-08-28T16:44:48.334Z,5.53
2018-08-28T16:47:16.791Z,6.07
2018-08-28T16:49:45.313Z,6.20
2018-08-28T16:52:13.834Z,5.47
2018-08-28T16:54:42.339Z,6.33
2018-08-28T16:57:10.833Z,5.57
2018-08-28T16:59:39.362Z,27.47
2018-08-28T17:02:07.861Z,6.70
2018-08-28T17:04:36.342Z,5.97
2018-08-28T17:07:05.063Z,6.17
2018-08-28T17:09:33.545Z,6.10
2018-08-28T17:12:02.092Z,6.03
2018-08-28T17:14:30.739Z,6.20
2018-08-28T17:16:59.229Z,6.30
2018-08-28T17:19:27.874Z,7.83
2018-08-28T17:21:56.423Z,6.23
2018-08-28T17:24:24.985Z,6.30
2018-08-28T17:26:53.488Z,6.43
2018-08-28T17:29:22.019Z,7.17
2018-08-28T17:31:50.958Z,5.97
2018-08-28T17:34:19.641Z,5.87
2018-08-28T17:36:48.238Z,6.00
2018-08-28T17:39:16.797Z,6.00
2018-08-28T17:41:45.239Z,5.57
2018-08-28T17:44:13.929Z,5.80
2018-08-28T17:46:42.442Z,6.23
2018-08-28T17:49:10.949Z,6.57
2018-08-28T17:51:39.482Z,6.40
2018-08-28T17:54:08.101Z,5.60
2018-08-28T17:56:36.781Z,6.17
2018-08-28T17:59:05.265Z,6.00
2018-08-28T18:01:33.846Z,5.87
2018-08-28T18:04:02.300Z,5.83
2018-08-28T18:06:30.814Z,7.10
2018-08-28T18:08:59.304Z,7.30
2018-08-28T18:11:27.951Z,6.83
2018-08-28T18:13:56.427Z,6.57
2018-08-28T18:16:25.023Z,7.07
2018-08-28T18:18:53.465Z,6.43
2018-08-28T18:21:21.950Z,6.47
2018-08-28T18:23:50.585Z,6.77
2018-08-28T18:26:19.109Z,6.43
2018-08-28T18:28:48.250Z,6.80
2018-08-28T18:31:16.727Z,6.37
2018-08-28T18:33:45.255Z,6.83
2018-08-28T18:36:13.836Z,7.23
2018-08-28T18:38:43.315Z,8.07
2018-08-28T18:41:11.932Z,7.03
2018-08-28T18:43:40.345Z,6.83
2018-08-28T18:46:08.915Z,7.47
2018-08-28T18:48:37.480Z,6.57
2018-08-28T18:51:06.102Z,7.43
2018-08-28T18:53:34.923Z,10.73
2018-08-28T18:56:03.471Z,7.23
2018-08-28T18:58:32.221Z,7.63
2018-08-28T19:01:00.727Z,6.57
2018-08-28T19:03:29.289Z,7.83
2018-08-28T19:05:57.809Z,6.70
2018-08-28T19:08:26.420Z,7.07
2018-08-28T19:10:55.025Z,7.43
2018-08-28T19:13:23.512Z,7.57
2018-08-28T19:15:52.345Z,7.40
2018-08-28T19:18:20.922Z,7.73
2018-08-28T19:20:49.499Z,7.43
2018-08-28T19:23:18.028Z,8.23
2018-08-28T19:25:46.549Z,8.47
2018-08-28T19:28:15.026Z,8.57
2018-08-28T19:30:43.531Z,11.20
2018-08-28T19:33:13.312Z,8.63
2018-08-28T19:35:41.758Z,8.83
2018-08-28T19:38:10.265Z,9.03
2018-08-28T19:40:38.781Z,9.40
2018-08-28T19:43:07.300Z,10.40
2018-08-28T19:45:35.898Z,8.13
2018-08-28T19:48:04.627Z,9.80
2018-08-28T19:50:33.169Z,10.47
2018-08-28T19:53:01.653Z,9.60
2018-08-28T19:55:30.278Z,9.10
2018-08-28T19:57:58.817Z,8.43
2018-08-28T20:00:27.682Z,8.97
2018-08-28T20:02:56.197Z,9.13
2018-08-28T20:05:24.705Z,8.67
2018-08-28T20:07:53.260Z,8.50
2018-08-28T20:10:21.843Z,10.60
2018-08-28T20:12:50.341Z,12.23
2018-08-28T20:15:18.916Z,15.77
2018-08-28T20:17:47.388Z,12.97
2018-08-28T20:20:15.930Z,16.67
2018-08-28T20:22:44.464Z,14.80
2018-08-28T20:25:12.944Z,10.57
2018-08-28T20:27:41.605Z,9.57
2018-08-28T20:30:10.426Z,11.37
2018-08-28T20:32:38.929Z,11.43
2018-08-28T20:35:07.830Z,9.43
2018-08-28T20:37:36.527Z,9.73
2018-08-28T20:40:05.160Z,10.67
2018-08-28T20:42:33.641Z,9.10
2018-08-28T20:45:02.076Z,7.53
2018-08-28T20:47:30.643Z,9.40
2018-08-28T20:49:59.131Z,8.97
2018-08-28T20:52:27.889Z,9.50
2018-08-28T20:54:56.498Z,9.13
2018-08-28T20:57:25.004Z,9.70
2018-08-28T20:59:53.493Z,9.27
2018-08-28T21:02:22.011Z,8.73
2018-08-28T21:04:50.569Z,9.17
2018-08-28T21:07:19.335Z,8.83
2018-08-28T21:09:47.823Z,9.40
2018-08-28T21:12:16.305Z,8.67
2018-08-28T21:14:44.916Z,9.17
2018-08-28T21:17:13.410Z,9.57
2018-08-28T21:19:41.865Z,9.73
2018-08-28T21:22:10.488Z,9.27
2018-08-28T21:24:39.003Z,9.83
2018-08-28T21:27:07.478Z,8.67
2018-08-28T21:29:35.968Z,9.70
2018-08-28T21:32:04.577Z,9.83
2018-08-28T21:34:33.063Z,9.00
2018-08-28T21:37:01.532Z,9.67
2018-08-28T21:39:30.104Z,9.23
2018-08-28T21:41:58.986Z,9.10
2018-08-28T21:44:27.475Z,12.30
2018-08-28T21:46:56.202Z,11.73
2018-08-28T21:49:24.744Z,10.13
2018-08-28T21:51:53.249Z,18.07
2018-08-28T21:54:21.707Z,14.80
2018-08-28T21:56:50.235Z,9.03
2018-08-28T21:59:18.692Z,9.27
2018-08-28T22:01:47.380Z,9.10
2018-08-28T22:04:15.893Z,9.47
2018-08-28T22:06:49.818Z,8.77
2018-08-28T22:09:18.252Z,8.50
2018-08-28T22:11:46.948Z,8.27
2018-08-28T22:14:15.456Z,9.40
2018-08-28T22:16:43.934Z,8.73
2018-08-28T22:19:12.503Z,8.27
2018-08-28T22:21:40.938Z,8.63
2018-08-28T22:24:09.490Z,8.47
2018-08-28T22:26:37.982Z,10.23
2018-08-28T22:29:06.409Z,9.33
2018-08-28T22:31:35.326Z,8.83
2018-08-28T22:34:03.899Z,10.03
2018-08-28T22:36:32.533Z,8.07
2018-08-28T22:39:01.089Z,8.70
2018-08-28T22:41:29.644Z,7.93
2018-08-28T22:43:58.128Z,8.37
2018-08-28T22:46:26.809Z,7.90
2018-08-28T22:48:55.264Z,8.57
2018-08-28T22:51:23.731Z,8.90
2018-08-28T22:53:52.293Z,8.20
2018-08-28T22:56:20.767Z,9.33
2018-08-28T22:58:49.306Z,8.77
2018-08-28T23:01:17.746Z,9.67
2018-08-28T23:03:46.207Z,9.03
2018-08-28T23:06:14.680Z,8.27
2018-08-28T23:08:43.157Z,9.07
2018-08-28T23:11:11.603Z,9.67
2018-08-28T23:13:40.121Z,8.67
2018-08-28T23:16:08.575Z,8.20
2018-08-28T23:18:37.010Z,8.67
2018-08-28T23:21:05.542Z,8.47
2018-08-28T23:23:33.993Z,7.80
2018-08-28T23:26:02.423Z,7.73
2018-08-28T23:28:31.211Z,7.40
2018-08-28T23:30:59.923Z,7.87
2018-08-28T23:33:28.599Z,7.60
2018-08-28T23:35:57.103Z,8.00
2018-08-28T23:38:25.536Z,8.43
2018-08-28T23:40:54.364Z,7.97
2018-08-28T23:43:22.863Z,7.60
2018-08-28T23:45:51.365Z,8.53
2018-08-28T23:48:19.846Z,7.50
2018-08-28T23:50:48.274Z,7.80
2018-08-28T23:53:16.761Z,7.87
2018-08-28T23:55:45.182Z,7.87
2018-08-28T23:58:13.720Z,8.03
